sensor_id;sensor_type;location;lat;lon;timestamp;pressure;altitude;pressure_sealevel;temperature;humidity
9676;BME280;4876;42.656;23.292;2023-08-21T00:01:03;94739.78;;;23.62;58.43
9676;BME280;4876;42.656;23.292;2023-08-21T00:03:30;94735.91;;;23.53;59.30
9676;BME280;4876;42.656;23.292;2023-08-21T00:05:56;94736.66;;;23.46;59.43
9676;BME280;4876;42.656;23.292;2023-08-21T00:08:23;94731.28;;;23.53;59.57
9676;BME280;4876;42.656;23.292;2023-08-21T00:10:50;94718.66;;;23.43;59.91
9676;BME280;4876;42.656;23.292;2023-08-21T00:13:17;94727.44;;;23.40;60.32
9676;BME280;4876;42.656;23.292;2023-08-21T00:15:46;94730.91;;;23.37;60.05
9676;BME280;4876;42.656;23.292;2023-08-21T00:18:13;94721.31;;;23.36;60.33
9676;BME280;4876;42.656;23.292;2023-08-21T00:20:40;94725.53;;;23.37;59.83
9676;BME280;4876;42.656;23.292;2023-08-21T00:23:08;94735.13;;;23.38;59.66
9676;BME280;4876;42.656;23.292;2023-08-21T00:25:35;94721.69;;;23.24;60.05
9676;BME280;4876;42.656;23.292;2023-08-21T00:28:02;94725.13;;;23.28;59.78
9676;BME280;4876;42.656;23.292;2023-08-21T00:30:29;94733.19;;;23.35;60.10
9676;BME280;4876;42.656;23.292;2023-08-21T00:32:58;94700.56;;;23.01;59.92
9676;BME280;4876;42.656;23.292;2023-08-21T00:35:24;94722.75;;;22.87;61.85
9676;BME280;4876;42.656;23.292;2023-08-21T00:37:51;94733.72;;;22.61;62.97
9676;BME280;4876;42.656;23.292;2023-08-21T00:40:18;94725.63;;;22.53;63.00
9676;BME280;4876;42.656;23.292;2023-08-21T00:42:45;94735.63;;;22.60;61.98
9676;BME280;4876;42.656;23.292;2023-08-21T00:45:12;94735.59;;;22.53;62.58
9676;BME280;4876;42.656;23.292;2023-08-21T00:47:39;94734.75;;;22.38;62.77
9676;BME280;4876;42.656;23.292;2023-08-21T00:50:09;94731.00;;;22.50;62.56
9676;BME280;4876;42.656;23.292;2023-08-21T00:52:38;94726.47;;;22.61;62.45
9676;BME280;4876;42.656;23.292;2023-08-21T00:55:06;94737.94;;;22.65;62.30
9676;BME280;4876;42.656;23.292;2023-08-21T00:57:33;94734.16;;;22.70;62.61
9676;BME280;4876;42.656;23.292;2023-08-21T01:00:00;94736.47;;;22.75;62.54
9676;BME280;4876;42.656;23.292;2023-08-21T01:02:27;94737.22;;;22.72;62.56
9676;BME280;4876;42.656;23.292;2023-08-21T01:04:54;94737.22;;;22.72;62.39
9676;BME280;4876;42.656;23.292;2023-08-21T01:07:22;94741.47;;;22.80;62.51
9676;BME280;4876;42.656;23.292;2023-08-21T01:09:58;94738.75;;;22.73;62.42
9676;BME280;4876;42.656;23.292;2023-08-21T01:12:30;94724.13;;;22.60;62.25
9676;BME280;4876;42.656;23.292;2023-08-21T01:15:05;94730.31;;;22.67;62.49
9676;BME280;4876;42.656;23.292;2023-08-21T01:17:33;94735.28;;;22.72;62.18
9676;BME280;4876;42.656;23.292;2023-08-21T01:20:03;94746.44;;;22.81;61.98
9676;BME280;4876;42.656;23.292;2023-08-21T01:22:37;94745.69;;;22.81;61.97
9676;BME280;4876;42.656;23.292;2023-08-21T01:25:06;94740.28;;;22.70;62.62
9676;BME280;4876;42.656;23.292;2023-08-21T01:27:34;94735.28;;;22.69;62.60
9676;BME280;4876;42.656;23.292;2023-08-21T01:30:03;94745.66;;;22.74;62.16
9676;BME280;4876;42.656;23.292;2023-08-21T01:32:35;94733.38;;;22.69;62.23
9676;BME280;4876;42.656;23.292;2023-08-21T01:35:05;94743.38;;;22.76;61.74
9676;BME280;4876;42.656;23.292;2023-08-21T01:37:34;94738.38;;;22.78;62.21
9676;BME280;4876;42.656;23.292;2023-08-21T01:40:02;94743.34;;;22.69;62.13
9676;BME280;4876;42.656;23.292;2023-08-21T01:42:31;94743.34;;;22.69;62.00
9676;BME280;4876;42.656;23.292;2023-08-21T01:44:58;94745.22;;;22.65;62.00
9676;BME280;4876;42.656;23.292;2023-08-21T01:47:25;94739.50;;;22.70;62.12
9676;BME280;4876;42.656;23.292;2023-08-21T01:49:52;94741.81;;;22.71;62.29
9676;BME280;4876;42.656;23.292;2023-08-21T01:52:19;94741.81;;;22.68;62.39
9676;BME280;4876;42.656;23.292;2023-08-21T01:54:47;94742.13;;;22.55;62.60
9676;BME280;4876;42.656;23.292;2023-08-21T01:57:14;94742.53;;;22.61;62.93
9676;BME280;4876;42.656;23.292;2023-08-21T01:59:42;94740.97;;;22.56;62.79
9676;BME280;4876;42.656;23.292;2023-08-21T02:02:09;94734.81;;;22.52;62.60
9676;BME280;4876;42.656;23.292;2023-08-21T02:04:36;94734.44;;;22.50;62.49
9676;BME280;4876;42.656;23.292;2023-08-21T02:07:03;94735.97;;;22.51;62.37
9676;BME280;4876;42.656;23.292;2023-08-21T02:09:30;94729.44;;;22.45;62.55
9676;BME280;4876;42.656;23.292;2023-08-21T02:11:56;94738.66;;;22.51;62.65
9676;BME280;4876;42.656;23.292;2023-08-21T02:14:23;94736.38;;;22.50;62.40
9676;BME280;4876;42.656;23.292;2023-08-21T02:16:51;94732.19;;;22.56;62.57
9676;BME280;4876;42.656;23.292;2023-08-21T02:19:18;94738.63;;;22.48;62.53
9676;BME280;4876;42.656;23.292;2023-08-21T02:21:45;94734.41;;;22.47;62.65
9676;BME280;4876;42.656;23.292;2023-08-21T02:24:12;94731.00;;;22.50;62.55
9676;BME280;4876;42.656;23.292;2023-08-21T02:26:39;94731.00;;;22.53;62.52
9676;BME280;4876;42.656;23.292;2023-08-21T02:29:06;94730.22;;;22.49;62.75
9676;BME280;4876;42.656;23.292;2023-08-21T02:31:32;94727.13;;;22.47;62.35
9676;BME280;4876;42.656;23.292;2023-08-21T02:34:01;94721.75;;;22.37;62.54
9676;BME280;4876;42.656;23.292;2023-08-21T02:36:28;94729.41;;;22.38;62.36
9676;BME280;4876;42.656;23.292;2023-08-21T02:38:55;94729.41;;;22.38;62.57
9676;BME280;4876;42.656;23.292;2023-08-21T02:41:22;94733.25;;;22.44;62.53
9676;BME280;4876;42.656;23.292;2023-08-21T02:43:49;94728.31;;;22.50;62.55
9676;BME280;4876;42.656;23.292;2023-08-21T02:46:16;94728.66;;;22.45;62.24
9676;BME280;4876;42.656;23.292;2023-08-21T02:48:43;94725.53;;;22.36;62.54
9676;BME280;4876;42.656;23.292;2023-08-21T02:51:11;94735.19;;;22.47;62.47
9676;BME280;4876;42.656;23.292;2023-08-21T02:53:38;94729.44;;;22.45;62.32
9676;BME280;4876;42.656;23.292;2023-08-21T02:56:05;94730.97;;;22.46;63.23
9676;BME280;4876;42.656;23.292;2023-08-21T02:58:32;94741.31;;;22.44;62.86
9676;BME280;4876;42.656;23.292;2023-08-21T03:00:58;94732.44;;;22.33;63.79
9676;BME280;4876;42.656;23.292;2023-08-21T03:03:25;94737.78;;;22.33;63.80
9676;BME280;4876;42.656;23.292;2023-08-21T03:05:52;94740.81;;;22.28;64.30
9676;BME280;4876;42.656;23.292;2023-08-21T03:08:20;94736.06;;;22.03;64.95
9676;BME280;4876;42.656;23.292;2023-08-21T03:10:47;94747.53;;;22.00;65.18
9676;BME280;4876;42.656;23.292;2023-08-21T03:13:14;94746.34;;;21.98;65.30
9676;BME280;4876;42.656;23.292;2023-08-21T03:15:41;94741.41;;;22.03;65.18
9676;BME280;4876;42.656;23.292;2023-08-21T03:18:08;94744.03;;;21.96;65.22
9676;BME280;4876;42.656;23.292;2023-08-21T03:20:35;94748.63;;;21.96;65.20
9676;BME280;4876;42.656;23.292;2023-08-21T03:23:02;94755.91;;;21.95;65.36
9676;BME280;4876;42.656;23.292;2023-08-21T03:25:30;94736.75;;;21.93;65.72
9676;BME280;4876;42.656;23.292;2023-08-21T03:27:57;94761.66;;;21.97;65.64
9676;BME280;4876;42.656;23.292;2023-08-21T03:30:24;94758.25;;;22.00;65.75
9676;BME280;4876;42.656;23.292;2023-08-21T03:32:51;94758.69;;;22.10;65.19
9676;BME280;4876;42.656;23.292;2023-08-21T03:35:18;94760.13;;;21.96;65.71
9676;BME280;4876;42.656;23.292;2023-08-21T03:37:45;94762.34;;;21.87;66.06
9676;BME280;4876;42.656;23.292;2023-08-21T03:40:12;94760.41;;;21.84;66.32
9676;BME280;4876;42.656;23.292;2023-08-21T03:42:40;94760.44;;;21.91;66.23
9676;BME280;4876;42.656;23.292;2023-08-21T03:45:08;94755.50;;;21.93;66.49
9676;BME280;4876;42.656;23.292;2023-08-21T03:47:35;94755.09;;;21.88;66.65
9676;BME280;4876;42.656;23.292;2023-08-21T03:50:02;94755.03;;;21.84;66.98
9676;BME280;4876;42.656;23.292;2023-08-21T03:52:29;94756.56;;;21.82;66.96
9676;BME280;4876;42.656;23.292;2023-08-21T03:54:56;94758.25;;;22.00;66.57
9676;BME280;4876;42.656;23.292;2023-08-21T03:57:22;94756.91;;;22.24;65.39
9676;BME280;4876;42.656;23.292;2023-08-21T03:59:51;94748.50;;;22.33;64.99
9676;BME280;4876;42.656;23.292;2023-08-21T04:02:18;94750.22;;;22.63;64.37
9676;BME280;4876;42.656;23.292;2023-08-21T04:04:45;94756.84;;;22.87;63.88
9676;BME280;4876;42.656;23.292;2023-08-21T04:07:12;94763.81;;;23.16;63.16
9676;BME280;4876;42.656;23.292;2023-08-21T04:09:39;94765.81;;;23.51;61.79
9676;BME280;4876;42.656;23.292;2023-08-21T04:12:06;94764.34;;;23.68;60.82
9676;BME280;4876;42.656;23.292;2023-08-21T04:14:33;94765.50;;;23.81;60.88
9676;BME280;4876;42.656;23.292;2023-08-21T04:17:01;94756.63;;;24.09;59.78
9676;BME280;4876;42.656;23.292;2023-08-21T04:19:28;94776.59;;;24.48;59.24
9676;BME280;4876;42.656;23.292;2023-08-21T04:21:58;94766.47;;;24.84;58.20
9676;BME280;4876;42.656;23.292;2023-08-21T04:24:25;94731.81;;;25.00;56.77
9676;BME280;4876;42.656;23.292;2023-08-21T04:26:52;94773.13;;;25.49;56.22
9676;BME280;4876;42.656;23.292;2023-08-21T04:29:19;94775.41;;;25.54;57.84
9676;BME280;4876;42.656;23.292;2023-08-21T04:31:45;94775.75;;;25.60;56.26
9676;BME280;4876;42.656;23.292;2023-08-21T04:34:14;94771.59;;;25.44;57.04
9676;BME280;4876;42.656;23.292;2023-08-21T04:36:40;94789.09;;;25.77;56.69
9676;BME280;4876;42.656;23.292;2023-08-21T04:39:07;94783.28;;;25.86;54.97
9676;BME280;4876;42.656;23.292;2023-08-21T04:41:34;94780.66;;;24.95;59.83
9676;BME280;4876;42.656;23.292;2023-08-21T04:44:01;94781.75;;;25.22;58.82
9676;BME280;4876;42.656;23.292;2023-08-21T04:46:28;94779.50;;;24.96;59.88
9676;BME280;4876;42.656;23.292;2023-08-21T04:48:55;94780.13;;;25.32;58.79
9676;BME280;4876;42.656;23.292;2023-08-21T04:51:23;94777.75;;;25.45;57.44
9676;BME280;4876;42.656;23.292;2023-08-21T04:53:50;94777.75;;;25.48;57.38
9676;BME280;4876;42.656;23.292;2023-08-21T04:56:17;94772.91;;;25.18;57.71
9676;BME280;4876;42.656;23.292;2023-08-21T04:58:44;94788.56;;;25.38;56.53
9676;BME280;4876;42.656;23.292;2023-08-21T05:01:11;94788.72;;;25.79;56.17
9676;BME280;4876;42.656;23.292;2023-08-21T05:03:38;94795.25;;;25.82;56.87
9676;BME280;4876;42.656;23.292;2023-08-21T05:06:04;94798.44;;;26.14;55.19
9676;BME280;4876;42.656;23.292;2023-08-21T05:08:33;94808.81;;;26.19;55.24
9676;BME280;4876;42.656;23.292;2023-08-21T05:11:01;94805.44;;;26.08;55.95
9676;BME280;4876;42.656;23.292;2023-08-21T05:13:28;94805.50;;;26.49;54.48
9676;BME280;4876;42.656;23.292;2023-08-21T05:15:55;94797.31;;;26.12;54.98
9676;BME280;4876;42.656;23.292;2023-08-21T05:18:23;94813.63;;;25.94;55.92
9676;BME280;4876;42.656;23.292;2023-08-21T05:20:53;94812.06;;;26.00;55.64
9676;BME280;4876;42.656;23.292;2023-08-21T05:23:20;94816.72;;;25.92;56.30
9676;BME280;4876;42.656;23.292;2023-08-21T05:25:48;94813.56;;;26.01;55.71
9676;BME280;4876;42.656;23.292;2023-08-21T05:28:16;94820.31;;;25.79;56.11
9676;BME280;4876;42.656;23.292;2023-08-21T05:30:42;94807.69;;;25.61;57.08
9676;BME280;4876;42.656;23.292;2023-08-21T05:33:09;94811.72;;;25.24;58.68
9676;BME280;4876;42.656;23.292;2023-08-21T05:35:36;94805.16;;;25.26;58.73
9676;BME280;4876;42.656;23.292;2023-08-21T05:38:03;94809.38;;;25.30;57.78
9676;BME280;4876;42.656;23.292;2023-08-21T05:40:30;94812.44;;;25.36;57.63
9676;BME280;4876;42.656;23.292;2023-08-21T05:42:59;94794.00;;;25.27;58.20
9676;BME280;4876;42.656;23.292;2023-08-21T05:45:25;94803.50;;;25.49;57.64
9676;BME280;4876;42.656;23.292;2023-08-21T05:47:53;94800.38;;;25.58;58.13
9676;BME280;4876;42.656;23.292;2023-08-21T05:50:20;94795.06;;;26.07;56.63
9676;BME280;4876;42.656;23.292;2023-08-21T05:52:47;94802.28;;;26.17;56.61
9676;BME280;4876;42.656;23.292;2023-08-21T05:55:14;94798.75;;;25.79;57.36
9676;BME280;4876;42.656;23.292;2023-08-21T05:57:41;94799.31;;;26.04;56.85
9676;BME280;4876;42.656;23.292;2023-08-21T06:00:11;94797.47;;;26.42;55.85
9676;BME280;4876;42.656;23.292;2023-08-21T06:02:39;94799.25;;;26.56;54.80
9676;BME280;4876;42.656;23.292;2023-08-21T06:05:07;94797.00;;;27.23;53.14
9676;BME280;4876;42.656;23.292;2023-08-21T06:07:34;94803.13;;;27.54;51.70
9676;BME280;4876;42.656;23.292;2023-08-21T06:10:01;94801.19;;;27.27;52.68
9676;BME280;4876;42.656;23.292;2023-08-21T06:12:28;94802.03;;;26.87;53.66
9676;BME280;4876;42.656;23.292;2023-08-21T06:14:55;94811.03;;;27.41;52.17
9676;BME280;4876;42.656;23.292;2023-08-21T06:17:23;94809.50;;;27.67;50.99
9676;BME280;4876;42.656;23.292;2023-08-21T06:19:50;94808.34;;;27.68;50.99
9676;BME280;4876;42.656;23.292;2023-08-21T06:22:17;94816.75;;;28.01;50.63
9676;BME280;4876;42.656;23.292;2023-08-21T06:24:44;94802.16;;;27.68;51.63
9676;BME280;4876;42.656;23.292;2023-08-21T06:27:11;94803.88;;;27.85;50.43
9676;BME280;4876;42.656;23.292;2023-08-21T06:29:37;94807.53;;;27.98;49.51
9676;BME280;4876;42.656;23.292;2023-08-21T06:32:05;94807.84;;;28.27;48.70
9676;BME280;4876;42.656;23.292;2023-08-21T06:34:34;94817.75;;;28.37;49.00
9676;BME280;4876;42.656;23.292;2023-08-21T06:37:01;94816.84;;;28.44;48.78
9676;BME280;4876;42.656;23.292;2023-08-21T06:39:28;94814.44;;;28.50;48.90
9676;BME280;4876;42.656;23.292;2023-08-21T06:41:54;94818.19;;;28.56;48.71
9676;BME280;4876;42.656;23.292;2023-08-21T06:44:21;94813.19;;;28.31;46.65
9676;BME280;4876;42.656;23.292;2023-08-21T06:46:48;94798.19;;;28.50;45.50
9676;BME280;4876;42.656;23.292;2023-08-21T06:49:15;94813.91;;;28.58;45.73
9676;BME280;4876;42.656;23.292;2023-08-21T06:51:43;94814.91;;;28.44;46.15
9676;BME280;4876;42.656;23.292;2023-08-21T06:54:10;94824.28;;;28.63;46.16
9676;BME280;4876;42.656;23.292;2023-08-21T06:56:37;94826.69;;;28.58;46.30
9676;BME280;4876;42.656;23.292;2023-08-21T06:59:04;94817.84;;;29.17;45.31
9676;BME280;4876;42.656;23.292;2023-08-21T07:01:31;94822.19;;;29.14;45.26
9676;BME280;4876;42.656;23.292;2023-08-21T07:03:57;94822.44;;;29.20;45.65
9676;BME280;4876;42.656;23.292;2023-08-21T07:06:26;94824.22;;;29.66;43.81
9676;BME280;4876;42.656;23.292;2023-08-21T07:08:55;94808.38;;;29.65;43.50
9676;BME280;4876;42.656;23.292;2023-08-21T07:11:22;94823.63;;;29.75;43.80
9676;BME280;4876;42.656;23.292;2023-08-21T07:13:48;94819.16;;;29.85;42.85
9676;BME280;4876;42.656;23.292;2023-08-21T07:16:15;94812.00;;;29.74;43.95
9676;BME280;4876;42.656;23.292;2023-08-21T07:18:42;94815.47;;;29.75;44.18
9676;BME280;4876;42.656;23.292;2023-08-21T07:21:09;94815.53;;;30.24;42.87
9676;BME280;4876;42.656;23.292;2023-08-21T07:23:36;94811.72;;;29.53;44.77
9676;BME280;4876;42.656;23.292;2023-08-21T07:26:04;94823.16;;;29.96;42.82
9676;BME280;4876;42.656;23.292;2023-08-21T07:28:33;94808.16;;;30.08;41.91
9676;BME280;4876;42.656;23.292;2023-08-21T07:31:00;94811.81;;;30.79;41.75
9676;BME280;4876;42.656;23.292;2023-08-21T07:33:27;94818.25;;;31.15;41.05
9676;BME280;4876;42.656;23.292;2023-08-21T07:35:57;94811.22;;;30.88;41.33
9676;BME280;4876;42.656;23.292;2023-08-21T07:38:24;94807.22;;;31.05;41.02
9676;BME280;4876;42.656;23.292;2023-08-21T07:41:03;94817.94;;;31.13;41.19
9676;BME280;4876;42.656;23.292;2023-08-21T07:43:31;94816.19;;;31.19;40.65
9676;BME280;4876;42.656;23.292;2023-08-21T07:45:58;94810.47;;;31.29;40.55
9676;BME280;4876;42.656;23.292;2023-08-21T07:48:24;94805.28;;;31.48;39.80
9676;BME280;4876;42.656;23.292;2023-08-21T07:50:51;94816.50;;;31.50;39.83
9676;BME280;4876;42.656;23.292;2023-08-21T07:53:19;94810.84;;;31.44;40.60
9676;BME280;4876;42.656;23.292;2023-08-21T07:55:46;94808.75;;;30.32;43.01
9676;BME280;4876;42.656;23.292;2023-08-21T07:58:14;94806.31;;;30.83;41.85
9676;BME280;4876;42.656;23.292;2023-08-21T08:00:41;94799.72;;;30.68;41.49
9676;BME280;4876;42.656;23.292;2023-08-21T08:03:09;94805.00;;;30.42;41.70
9676;BME280;4876;42.656;23.292;2023-08-21T08:05:36;94807.56;;;30.33;42.11
9676;BME280;4876;42.656;23.292;2023-08-21T08:08:03;94802.72;;;30.08;42.56
9676;BME280;4876;42.656;23.292;2023-08-21T08:10:30;94805.38;;;30.28;42.19
9676;BME280;4876;42.656;23.292;2023-08-21T08:12:57;94802.06;;;30.66;41.53
9676;BME280;4876;42.656;23.292;2023-08-21T08:15:25;94800.59;;;30.48;42.49
9676;BME280;4876;42.656;23.292;2023-08-21T08:17:54;94795.84;;;30.69;41.60
9676;BME280;4876;42.656;23.292;2023-08-21T08:20:21;94805.31;;;30.77;42.16
9676;BME280;4876;42.656;23.292;2023-08-21T08:22:48;94794.03;;;30.62;42.08
9676;BME280;4876;42.656;23.292;2023-08-21T08:25:15;94796.22;;;30.67;41.59
9676;BME280;4876;42.656;23.292;2023-08-21T08:27:43;94795.31;;;30.58;41.23
9676;BME280;4876;42.656;23.292;2023-08-21T08:30:10;94789.97;;;30.54;41.36
9676;BME280;4876;42.656;23.292;2023-08-21T08:32:40;94786.34;;;30.44;41.25
9676;BME280;4876;42.656;23.292;2023-08-21T08:35:10;94785.78;;;30.66;41.80
9676;BME280;4876;42.656;23.292;2023-08-21T08:37:37;94788.47;;;30.37;41.80
9676;BME280;4876;42.656;23.292;2023-08-21T08:40:05;94778.28;;;30.41;41.62
9676;BME280;4876;42.656;23.292;2023-08-21T08:42:32;94781.56;;;30.48;41.70
9676;BME280;4876;42.656;23.292;2023-08-21T08:45:02;94780.81;;;30.48;40.33
9676;BME280;4876;42.656;23.292;2023-08-21T08:47:31;94780.47;;;30.62;39.60
9676;BME280;4876;42.656;23.292;2023-08-21T08:50:01;94775.00;;;30.33;40.24
9676;BME280;4876;42.656;23.292;2023-08-21T08:52:31;94775.06;;;30.46;40.56
9676;BME280;4876;42.656;23.292;2023-08-21T08:55:00;94767.75;;;30.43;40.75
9676;BME280;4876;42.656;23.292;2023-08-21T08:57:28;94770.09;;;30.73;40.17
9676;BME280;4876;42.656;23.292;2023-08-21T08:59:54;94776.09;;;30.81;39.99
9676;BME280;4876;42.656;23.292;2023-08-21T09:02:22;94761.03;;;30.64;39.98
9676;BME280;4876;42.656;23.292;2023-08-21T09:04:50;94770.63;;;30.52;40.10
9676;BME280;4876;42.656;23.292;2023-08-21T09:07:18;94767.28;;;30.32;40.43
9676;BME280;4876;42.656;23.292;2023-08-21T09:09:46;94760.44;;;30.27;40.32
9676;BME280;4876;42.656;23.292;2023-08-21T09:12:15;94762.94;;;30.50;40.55
9676;BME280;4876;42.656;23.292;2023-08-21T09:14:43;94759.91;;;30.61;40.28
9676;BME280;4876;42.656;23.292;2023-08-21T09:17:10;94763.75;;;30.64;40.10
9676;BME280;4876;42.656;23.292;2023-08-21T09:19:37;94769.06;;;30.67;39.33
9676;BME280;4876;42.656;23.292;2023-08-21T09:22:08;94768.13;;;30.74;39.53
9676;BME280;4876;42.656;23.292;2023-08-21T09:24:36;94759.69;;;30.85;39.48
9676;BME280;4876;42.656;23.292;2023-08-21T09:27:04;94758.69;;;31.07;38.90
9676;BME280;4876;42.656;23.292;2023-08-21T09:29:38;94761.22;;;31.27;38.26
9676;BME280;4876;42.656;23.292;2023-08-21T09:32:05;94760.50;;;31.10;38.23
9676;BME280;4876;42.656;23.292;2023-08-21T09:34:33;94752.13;;;31.05;38.40
9676;BME280;4876;42.656;23.292;2023-08-21T09:37:04;94752.81;;;31.22;38.21
9676;BME280;4876;42.656;23.292;2023-08-21T09:39:33;94748.34;;;31.02;38.55
9676;BME280;4876;42.656;23.292;2023-08-21T09:42:05;94750.31;;;30.73;38.75
9676;BME280;4876;42.656;23.292;2023-08-21T09:44:36;94750.00;;;30.71;39.20
9676;BME280;4876;42.656;23.292;2023-08-21T09:47:05;94740.44;;;30.79;39.01
9676;BME280;4876;42.656;23.292;2023-08-21T09:49:35;94737.25;;;31.09;38.53
9676;BME280;4876;42.656;23.292;2023-08-21T09:52:04;94747.88;;;31.33;38.08
9676;BME280;4876;42.656;23.292;2023-08-21T09:54:31;94732.84;;;31.28;38.00
9676;BME280;4876;42.656;23.292;2023-08-21T09:57:02;94745.91;;;31.46;37.69
9676;BME280;4876;42.656;23.292;2023-08-21T09:59:30;94708.13;;;30.97;38.37
9676;BME280;4876;42.656;23.292;2023-08-21T10:01:58;94738.00;;;30.97;38.31
9676;BME280;4876;42.656;23.292;2023-08-21T10:04:27;94726.66;;;30.86;39.07
9676;BME280;4876;42.656;23.292;2023-08-21T10:06:55;94718.97;;;30.97;39.01
9676;BME280;4876;42.656;23.292;2023-08-21T10:09:24;94720.09;;;31.13;38.57
9676;BME280;4876;42.656;23.292;2023-08-21T10:11:52;94732.53;;;31.26;38.33
9676;BME280;4876;42.656;23.292;2023-08-21T10:14:21;94719.22;;;31.16;37.71
9676;BME280;4876;42.656;23.292;2023-08-21T10:16:50;94715.22;;;31.20;37.70
9676;BME280;4876;42.656;23.292;2023-08-21T10:19:18;94718.25;;;31.22;37.39
9676;BME280;4876;42.656;23.292;2023-08-21T10:21:46;94691.81;;;30.97;36.52
9676;BME280;4876;42.656;23.292;2023-08-21T10:24:26;94707.91;;;31.04;36.82
9676;BME280;4876;42.656;23.292;2023-08-21T10:26:54;94712.94;;;31.19;37.06
9676;BME280;4876;42.656;23.292;2023-08-21T10:29:22;94714.66;;;31.13;37.16
9676;BME280;4876;42.656;23.292;2023-08-21T10:31:58;94693.38;;;31.24;36.92
9676;BME280;4876;42.656;23.292;2023-08-21T10:34:31;94710.56;;;31.46;36.15
9676;BME280;4876;42.656;23.292;2023-08-21T10:37:03;94705.41;;;31.23;36.33
9676;BME280;4876;42.656;23.292;2023-08-21T10:39:31;94694.91;;;31.38;36.48
9676;BME280;4876;42.656;23.292;2023-08-21T10:42:01;94703.69;;;31.67;35.65
9676;BME280;4876;42.656;23.292;2023-08-21T10:44:46;94693.28;;;31.40;35.82
9676;BME280;4876;42.656;23.292;2023-08-21T10:47:17;94684.34;;;31.52;34.93
9676;BME280;4876;42.656;23.292;2023-08-21T10:49:45;94687.91;;;31.75;35.69
9676;BME280;4876;42.656;23.292;2023-08-21T10:52:13;94686.50;;;31.70;35.63
9676;BME280;4876;42.656;23.292;2023-08-21T10:54:45;94692.50;;;31.52;35.77
9676;BME280;4876;42.656;23.292;2023-08-21T10:57:13;94686.53;;;31.45;35.89
9676;BME280;4876;42.656;23.292;2023-08-21T10:59:56;94674.41;;;31.84;36.28
9676;BME280;4876;42.656;23.292;2023-08-21T11:02:24;94675.75;;;32.14;35.97
9676;BME280;4876;42.656;23.292;2023-08-21T11:04:52;94670.31;;;32.49;35.05
9676;BME280;4876;42.656;23.292;2023-08-21T11:07:19;94668.56;;;32.42;35.10
9676;BME280;4876;42.656;23.292;2023-08-21T11:09:47;94674.28;;;32.00;35.20
9676;BME280;4876;42.656;23.292;2023-08-21T11:12:16;94672.00;;;31.73;35.65
9676;BME280;4876;42.656;23.292;2023-08-21T11:14:43;94683.81;;;31.57;34.93
9676;BME280;4876;42.656;23.292;2023-08-21T11:17:12;94666.19;;;31.49;33.65
9676;BME280;4876;42.656;23.292;2023-08-21T11:19:39;94659.41;;;31.67;34.07
9676;BME280;4876;42.656;23.292;2023-08-21T11:22:07;94664.19;;;31.88;34.38
9676;BME280;4876;42.656;23.292;2023-08-21T11:24:43;94669.63;;;31.88;33.97
9676;BME280;4876;42.656;23.292;2023-08-21T11:27:11;94661.53;;;31.97;34.01
9676;BME280;4876;42.656;23.292;2023-08-21T11:29:41;94668.00;;;31.78;34.79
9676;BME280;4876;42.656;23.292;2023-08-21T11:32:10;94666.03;;;31.78;34.22
9676;BME280;4876;42.656;23.292;2023-08-21T11:34:39;94602.34;;;31.54;34.37
9676;BME280;4876;42.656;23.292;2023-08-21T11:37:06;94659.22;;;32.08;33.80
9676;BME280;4876;42.656;23.292;2023-08-21T11:39:42;94645.41;;;32.03;33.99
9676;BME280;4876;42.656;23.292;2023-08-21T11:42:10;94644.50;;;32.19;33.57
9676;BME280;4876;42.656;23.292;2023-08-21T11:44:45;94636.88;;;32.13;33.50
9676;BME280;4876;42.656;23.292;2023-08-21T11:47:14;94648.19;;;31.77;33.63
9676;BME280;4876;42.656;23.292;2023-08-21T11:49:43;94646.00;;;31.85;33.82
9676;BME280;4876;42.656;23.292;2023-08-21T11:52:13;94651.31;;;32.01;33.96
9676;BME280;4876;42.656;23.292;2023-08-21T11:54:41;94634.22;;;32.01;34.09
9676;BME280;4876;42.656;23.292;2023-08-21T11:57:12;94643.75;;;32.18;33.76
9676;BME280;4876;42.656;23.292;2023-08-21T11:59:40;94643.34;;;32.29;33.67
9676;BME280;4876;42.656;23.292;2023-08-21T12:02:16;94645.41;;;32.37;33.67
9676;BME280;4876;42.656;23.292;2023-08-21T12:04:43;94643.50;;;32.47;32.93
9676;BME280;4876;42.656;23.292;2023-08-21T12:07:11;94640.22;;;32.52;33.35
9676;BME280;4876;42.656;23.292;2023-08-21T12:09:38;94646.53;;;32.71;31.81
9676;BME280;4876;42.656;23.292;2023-08-21T12:12:06;94639.25;;;32.46;31.75
9676;BME280;4876;42.656;23.292;2023-08-21T12:14:33;94633.06;;;32.67;31.85
9676;BME280;4876;42.656;23.292;2023-08-21T12:17:04;94630.63;;;32.69;31.98
9676;BME280;4876;42.656;23.292;2023-08-21T12:19:33;94627.53;;;32.58;32.67
9676;BME280;4876;42.656;23.292;2023-08-21T12:22:00;94621.84;;;32.44;31.97
9676;BME280;4876;42.656;23.292;2023-08-21T12:24:27;94619.38;;;32.58;31.07
9676;BME280;4876;42.656;23.292;2023-08-21T12:26:56;94621.28;;;32.49;30.35
9676;BME280;4876;42.656;23.292;2023-08-21T12:29:23;94633.88;;;32.55;31.13
9676;BME280;4876;42.656;23.292;2023-08-21T12:31:50;94619.50;;;32.55;31.47
9676;BME280;4876;42.656;23.292;2023-08-21T12:34:17;94627.81;;;32.51;31.97
9676;BME280;4876;42.656;23.292;2023-08-21T12:36:46;94627.31;;;32.44;32.15
9676;BME280;4876;42.656;23.292;2023-08-21T12:39:13;94615.25;;;32.54;32.14
9676;BME280;4876;42.656;23.292;2023-08-21T12:41:41;94628.69;;;32.48;32.11
9676;BME280;4876;42.656;23.292;2023-08-21T12:44:08;94616.91;;;32.51;32.22
9676;BME280;4876;42.656;23.292;2023-08-21T12:46:35;94606.88;;;32.48;32.41
9676;BME280;4876;42.656;23.292;2023-08-21T12:49:02;94603.38;;;32.38;32.15
9676;BME280;4876;42.656;23.292;2023-08-21T12:51:29;94606.59;;;32.46;32.16
9676;BME280;4876;42.656;23.292;2023-08-21T12:53:58;94613.63;;;32.56;32.00
9676;BME280;4876;42.656;23.292;2023-08-21T12:56:25;94601.81;;;32.59;32.40
9676;BME280;4876;42.656;23.292;2023-08-21T12:58:52;94606.41;;;32.72;32.52
9676;BME280;4876;42.656;23.292;2023-08-21T13:01:19;94591.63;;;32.51;32.51
9676;BME280;4876;42.656;23.292;2023-08-21T13:03:46;94595.59;;;32.59;32.46
9676;BME280;4876;42.656;23.292;2023-08-21T13:06:13;94584.44;;;32.66;31.67
9676;BME280;4876;42.656;23.292;2023-08-21T13:08:40;94603.69;;;32.72;32.05
9676;BME280;4876;42.656;23.292;2023-08-21T13:11:09;94583.56;;;32.69;32.17
9676;BME280;4876;42.656;23.292;2023-08-21T13:13:36;94593.66;;;32.59;31.56